createdAt,value
2023-01-29T00:00:12.982Z,101007.90
2023-01-29T00:03:01.433Z,101005.09
2023-01-29T00:05:29.791Z,101010.01
2023-01-29T00:07:58.184Z,101008.09
2023-01-29T00:10:26.827Z,101008.44
2023-01-29T00:12:55.360Z,101004.54
2023-01-29T00:15:23.905Z,101006.00
2023-01-29T00:17:52.160Z,101010.84
2023-01-29T00:20:20.393Z,101010.06
2023-01-29T00:22:48.979Z,101010.11
2023-01-29T00:25:17.330Z,101008.51
2023-01-29T00:27:45.515Z,101010.02
2023-01-29T00:30:14.236Z,101019.08
2023-01-29T00:32:42.975Z,101029.38
2023-01-29T00:35:12.765Z,101034.44
2023-01-29T00:37:41.003Z,101033.52
2023-01-29T00:40:10.338Z,101035.23
2023-01-29T00:42:57.209Z,101031.09
2023-01-29T00:45:25.626Z,101036.88
2023-01-29T00:47:53.767Z,101031.19
2023-01-29T00:50:22.047Z,101030.24
2023-01-29T00:52:51.961Z,101035.97
2023-01-29T00:55:20.488Z,101036.33
2023-01-29T00:57:48.761Z,101033.71
2023-01-29T01:00:19.480Z,101022.64
2023-01-29T01:03:06.166Z,101021.05
2023-01-29T01:05:35.319Z,101019.86
2023-01-29T01:08:03.777Z,101028.70
2023-01-29T01:10:33.834Z,101029.56
2023-01-29T01:13:05.736Z,101025.39
2023-01-29T01:15:39.691Z,101013.11
2023-01-29T01:18:08.186Z,101006.83
2023-01-29T01:20:36.752Z,101005.39
2023-01-29T01:23:05.506Z,101001.85
2023-01-29T01:25:34.256Z,101001.36
2023-01-29T01:28:02.542Z,100996.52
2023-01-29T01:30:30.759Z,100991.30
2023-01-29T01:32:59.187Z,100989.49
2023-01-29T01:35:27.393Z,100985.97
2023-01-29T01:37:55.657Z,100993.64
2023-01-29T01:40:26.221Z,100998.55
2023-01-29T01:42:57.713Z,100998.83
2023-01-29T01:45:29.871Z,100993.61
2023-01-29T01:48:06.581Z,100993.55
2023-01-29T01:50:43.601Z,100983.96
2023-01-29T01:53:14.903Z,100976.45
2023-01-29T01:55:50.393Z,100974.21
2023-01-29T01:58:34.393Z,100974.55
2023-01-29T02:01:07.042Z,100966.77
2023-01-29T02:04:01.647Z,100970.13
2023-01-29T02:06:50.137Z,100962.48
2023-01-29T02:09:39.011Z,100958.70
2023-01-29T02:12:13.543Z,100958.63
2023-01-29T02:14:43.735Z,100957.90
2023-01-29T02:17:18.445Z,100957.89
2023-01-29T02:20:07.959Z,100963.35
2023-01-29T02:22:55.574Z,100959.74
2023-01-29T02:25:42.087Z,100960.59
2023-01-29T02:28:29.109Z,100949.84
2023-01-29T02:31:23.564Z,100948.77
2023-01-29T02:34:03.823Z,100950.89
2023-01-29T02:37:01.431Z,100954.73
2023-01-29T02:39:59.722Z,100958.16
2023-01-29T02:42:32.575Z,100960.77
2023-01-29T02:45:12.732Z,100965.32
2023-01-29T02:47:48.501Z,100959.88
2023-01-29T02:50:26.062Z,100951.06
2023-01-29T02:53:04.842Z,100942.34
2023-01-29T02:55:42.711Z,100929.70
2023-01-29T02:58:30.732Z,100932.80
2023-01-29T03:01:06.243Z,100933.86
2023-01-29T03:03:44.915Z,100929.43
2023-01-29T03:06:39.749Z,100929.15
2023-01-29T03:09:14.933Z,100926.95
2023-01-29T03:11:49.812Z,100919.55
2023-01-29T03:14:49.655Z,100919.77
2023-01-29T03:17:21.446Z,100917.73
2023-01-29T03:19:51.128Z,100917.41
2023-01-29T03:22:23.548Z,100921.09
2023-01-29T03:25:17.057Z,100918.47
2023-01-29T03:28:19.075Z,100912.39
2023-01-29T03:31:26.909Z,100908.36
2023-01-29T03:34:24.731Z,100905.48
2023-01-29T03:37:01.790Z,100904.64
2023-01-29T03:39:30.682Z,100906.44
2023-01-29T03:42:01.795Z,100913.05
2023-01-29T03:44:35.072Z,100908.25
2023-01-29T03:47:25.051Z,100907.13
2023-01-29T03:49:57.781Z,100911.61
2023-01-29T03:52:44.445Z,100912.02
2023-01-29T03:55:31.481Z,100906.58
2023-01-29T03:58:24.512Z,100899.30
2023-01-29T04:01:09.723Z,100901.92
2023-01-29T04:03:42.480Z,100894.90
2023-01-29T04:06:19.145Z,100891.67
2023-01-29T04:09:08.180Z,100892.20
2023-01-29T04:11:43.138Z,100886.38
2023-01-29T04:14:12.615Z,100892.71
2023-01-29T04:16:51.644Z,100892.10
2023-01-29T04:19:20.451Z,100891.79
2023-01-29T04:21:51.013Z,100891.77
2023-01-29T04:24:19.401Z,100891.42
2023-01-29T04:27:04.152Z,100895.78
2023-01-29T04:30:03.398Z,100892.88
2023-01-29T04:32:34.286Z,100884.86
2023-01-29T04:35:28.714Z,100881.73
2023-01-29T04:38:17.112Z,100883.44
2023-01-29T04:41:11.733Z,100882.16
2023-01-29T04:43:57.839Z,100877.66
2023-01-29T04:46:54.776Z,100872.98
2023-01-29T04:49:49.619Z,100881.63
2023-01-29T04:52:24.609Z,100879.88
2023-01-29T04:55:13.978Z,100876.92
2023-01-29T04:57:43.507Z,100864.62
2023-01-29T05:00:20.331Z,100868.00
2023-01-29T05:02:49.814Z,100878.58
2023-01-29T05:05:20.250Z,100881.45
2023-01-29T05:07:49.032Z,100882.14
2023-01-29T05:10:20.170Z,100877.16
2023-01-29T05:13:01.725Z,100871.51
2023-01-29T05:15:40.503Z,100865.94
2023-01-29T05:18:09.292Z,100866.92
2023-01-29T05:20:40.756Z,100860.41
2023-01-29T05:23:20.448Z,100857.52
2023-01-29T05:25:50.825Z,100851.67
2023-01-29T05:28:19.698Z,100856.56
2023-01-29T05:30:50.580Z,100855.75
2023-01-29T05:33:27.401Z,100845.95
2023-01-29T05:35:57.463Z,100844.95
2023-01-29T05:38:25.814Z,100839.94
2023-01-29T05:40:54.690Z,100835.81
2023-01-29T05:43:26.319Z,100829.91
2023-01-29T05:46:01.984Z,100823.86
2023-01-29T05:48:32.377Z,100823.04
2023-01-29T05:51:01.767Z,100816.02
2023-01-29T05:53:30.818Z,100816.53
2023-01-29T05:56:02.529Z,100813.89
2023-01-29T05:58:32.368Z,100821.61
2023-01-29T06:01:19.000Z,100818.88
2023-01-29T06:03:48.243Z,100815.35
2023-01-29T06:06:17.437Z,100813.20
2023-01-29T06:08:45.640Z,100808.73
2023-01-29T06:11:15.099Z,100807.98
2023-01-29T06:13:43.443Z,100803.77
2023-01-29T06:16:13.196Z,100797.90
2023-01-29T06:18:42.396Z,100791.88
2023-01-29T06:21:13.069Z,100789.85
2023-01-29T06:23:41.342Z,100796.08
2023-01-29T06:26:13.173Z,100797.49
2023-01-29T06:28:42.096Z,100804.38
2023-01-29T06:31:27.465Z,100803.17
2023-01-29T06:33:59.749Z,100800.98
2023-01-29T06:36:28.121Z,100798.65
2023-01-29T06:38:56.438Z,100803.72
2023-01-29T06:41:25.820Z,100808.88
2023-01-29T06:43:54.364Z,100814.70
2023-01-29T06:46:22.606Z,100821.01
2023-01-29T06:48:51.078Z,100832.92
2023-01-29T06:51:19.409Z,100828.41
2023-01-29T06:53:47.598Z,100823.16
2023-01-29T06:56:15.930Z,100821.96
2023-01-29T06:58:44.172Z,100822.64
2023-01-29T07:01:25.339Z,100816.06
2023-01-29T07:04:01.717Z,100808.67
2023-01-29T07:06:31.497Z,100801.81
2023-01-29T07:08:59.959Z,100800.48
2023-01-29T07:11:28.378Z,100804.27
2023-01-29T07:13:57.100Z,100801.33
2023-01-29T07:16:26.697Z,100796.80
2023-01-29T07:18:55.169Z,100793.54
2023-01-29T07:21:24.275Z,100787.61
2023-01-29T07:23:52.564Z,100779.41
2023-01-29T07:26:21.233Z,100766.85
2023-01-29T07:28:49.513Z,100763.21
2023-01-29T07:31:18.010Z,100769.75
2023-01-29T07:33:46.618Z,100781.10
2023-01-29T07:36:15.199Z,100772.02
2023-01-29T07:38:43.561Z,100768.66
2023-01-29T07:41:12.753Z,100765.85
2023-01-29T07:43:41.075Z,100760.02
2023-01-29T07:46:09.427Z,100753.29
2023-01-29T07:48:38.006Z,100748.36
2023-01-29T07:51:06.393Z,100750.70
2023-01-29T07:53:34.699Z,100749.23
2023-01-29T07:56:03.747Z,100744.66
2023-01-29T07:58:32.066Z,100744.53
2023-01-29T08:01:00.455Z,100740.16
2023-01-29T08:03:28.974Z,100738.61
2023-01-29T08:05:58.466Z,100737.79
2023-01-29T08:08:26.847Z,100736.08
2023-01-29T08:10:55.193Z,100742.14
2023-01-29T08:13:23.443Z,100744.19
2023-01-29T08:15:51.693Z,100746.42
2023-01-29T08:18:20.072Z,100750.22
2023-01-29T08:20:48.271Z,100748.18
2023-01-29T08:23:16.914Z,100745.45
2023-01-29T08:25:45.298Z,100742.21
2023-01-29T08:28:13.596Z,100737.32
2023-01-29T08:30:41.969Z,100740.74
2023-01-29T08:33:10.657Z,100734.48
2023-01-29T08:35:41.375Z,100728.76
2023-01-29T08:38:10.702Z,100733.54
2023-01-29T08:40:39.038Z,100733.98
2023-01-29T08:43:09.512Z,100738.08
2023-01-29T08:45:41.296Z,100739.67
2023-01-29T08:48:11.264Z,100734.48
2023-01-29T08:50:39.604Z,100739.73
2023-01-29T08:53:09.425Z,100746.58
2023-01-29T08:55:39.447Z,100753.13
2023-01-29T08:58:10.965Z,100755.42
2023-01-29T09:00:39.414Z,100754.64
2023-01-29T09:03:08.231Z,100753.48
2023-01-29T09:05:38.247Z,100750.04
2023-01-29T09:08:08.392Z,100754.05
2023-01-29T09:10:36.741Z,100757.19
2023-01-29T09:13:05.245Z,100756.67
2023-01-29T09:15:33.541Z,100753.60
2023-01-29T09:18:05.539Z,100751.85
2023-01-29T09:20:34.071Z,100748.79
2023-01-29T09:23:07.675Z,100753.66
2023-01-29T09:25:36.752Z,100754.17
2023-01-29T09:28:06.490Z,100750.14
2023-01-29T09:30:37.945Z,100753.80
2023-01-29T09:33:07.536Z,100757.64
2023-01-29T09:35:35.957Z,100755.52
2023-01-29T09:38:04.361Z,100750.03
2023-01-29T09:40:45.994Z,100743.77
2023-01-29T09:43:19.268Z,100744.73
2023-01-29T09:45:56.307Z,100738.91
2023-01-29T09:48:29.248Z,100744.81
2023-01-29T09:51:00.715Z,100749.20
2023-01-29T09:53:46.868Z,100751.36
2023-01-29T09:56:22.056Z,100741.27
2023-01-29T09:58:50.972Z,100740.89
2023-01-29T10:01:43.602Z,100737.95
2023-01-29T10:04:24.393Z,100735.12
2023-01-29T10:07:01.767Z,100730.16
2023-01-29T10:09:33.052Z,100731.11
2023-01-29T10:12:15.817Z,100720.14
2023-01-29T10:14:56.235Z,100727.61
2023-01-29T10:17:45.245Z,100722.32
2023-01-29T10:20:34.983Z,100719.29
2023-01-29T10:23:21.611Z,100705.38
2023-01-29T10:25:50.252Z,100697.42
2023-01-29T10:28:25.849Z,100694.59
2023-01-29T10:31:13.161Z,100689.16
2023-01-29T10:34:00.649Z,100679.85
2023-01-29T10:36:46.328Z,100671.40
2023-01-29T10:39:23.338Z,100669.93
2023-01-29T10:42:20.228Z,100670.69
2023-01-29T10:45:09.555Z,100667.63
2023-01-29T10:47:58.067Z,100668.27
2023-01-29T10:50:45.240Z,100657.09
2023-01-29T10:53:39.971Z,100657.64
2023-01-29T10:56:40.430Z,100653.33
2023-01-29T10:59:17.873Z,100643.05
2023-01-29T11:01:46.278Z,100644.65
2023-01-29T11:04:15.585Z,100638.84
2023-01-29T11:06:44.414Z,100637.64
2023-01-29T11:09:12.795Z,100633.67
2023-01-29T11:11:55.299Z,100629.36
2023-01-29T11:14:41.707Z,100631.67
2023-01-29T11:17:21.847Z,100633.15
2023-01-29T11:19:52.369Z,100632.55
2023-01-29T11:22:23.985Z,100628.63
2023-01-29T11:25:18.194Z,100623.69
2023-01-29T11:27:55.944Z,100613.17
2023-01-29T11:30:28.900Z,100603.21
2023-01-29T11:33:06.646Z,100590.71
2023-01-29T11:35:35.684Z,100589.19
2023-01-29T11:38:27.762Z,100582.55
2023-01-29T11:41:07.198Z,100579.27
2023-01-29T11:43:35.636Z,100571.80
2023-01-29T11:46:07.539Z,100567.80
2023-01-29T11:48:44.229Z,100568.20
2023-01-29T11:51:29.657Z,100569.47
2023-01-29T11:54:05.743Z,100559.92
2023-01-29T11:56:43.270Z,100554.83
2023-01-29T11:59:40.603Z,100543.27
2023-01-29T12:02:36.408Z,100538.27
2023-01-29T12:05:26.192Z,100540.31
2023-01-29T12:07:57.540Z,100538.10
2023-01-29T12:10:43.776Z,100533.56
2023-01-29T12:13:16.019Z,100534.59
2023-01-29T12:15:44.579Z,100532.80
2023-01-29T12:18:21.885Z,100534.73
2023-01-29T12:20:56.453Z,100537.35
2023-01-29T12:23:33.013Z,100534.10
2023-01-29T12:26:25.941Z,100529.95
2023-01-29T12:29:25.131Z,100520.36
2023-01-29T12:32:26.577Z,100516.84
2023-01-29T12:35:03.941Z,100511.90
2023-01-29T12:37:55.949Z,100508.13
2023-01-29T12:40:29.765Z,100507.98
2023-01-29T12:43:05.628Z,100496.27
2023-01-29T12:45:36.953Z,100496.14
2023-01-29T12:48:10.262Z,100504.52
2023-01-29T12:50:39.255Z,100501.34
2023-01-29T12:53:16.731Z,100496.84
2023-01-29T12:55:55.682Z,100496.25
2023-01-29T12:58:42.099Z,100495.85
2023-01-29T13:01:19.909Z,100501.71
2023-01-29T13:04:27.280Z,100500.16
2023-01-29T13:07:03.467Z,100489.88
2023-01-29T13:09:34.995Z,100489.59
2023-01-29T13:12:11.691Z,100479.52
2023-01-29T13:14:50.096Z,100472.19
2023-01-29T13:17:36.784Z,100472.25
2023-01-29T13:20:24.399Z,100479.23
2023-01-29T13:22:57.642Z,100483.77
2023-01-29T13:25:26.068Z,100489.88
2023-01-29T13:27:54.747Z,100491.02
2023-01-29T13:30:31.799Z,100489.92
2023-01-29T13:33:10.434Z,100489.64
2023-01-29T13:35:46.258Z,100491.66
2023-01-29T13:38:27.149Z,100478.70
2023-01-29T13:41:05.112Z,100471.80
2023-01-29T13:43:41.018Z,100463.78
2023-01-29T13:46:17.933Z,100460.99
2023-01-29T13:48:49.829Z,100464.11
2023-01-29T13:51:23.416Z,100464.68
2023-01-29T13:54:00.946Z,100462.61
2023-01-29T13:56:35.161Z,100462.43
2023-01-29T13:59:06.080Z,100457.73
2023-01-29T14:01:46.867Z,100456.66
2023-01-29T14:04:29.336Z,100453.04
2023-01-29T14:07:06.692Z,100442.52
2023-01-29T14:09:34.981Z,100436.34
2023-01-29T14:12:23.560Z,100428.44
2023-01-29T14:15:16.402Z,100422.41
2023-01-29T14:18:01.006Z,100421.53
2023-01-29T14:20:48.795Z,100422.54
2023-01-29T14:23:42.529Z,100418.91
2023-01-29T14:26:29.105Z,100423.73
2023-01-29T14:29:07.069Z,100424.89
2023-01-29T14:31:53.571Z,100426.89
2023-01-29T14:34:41.943Z,100419.65
2023-01-29T14:37:16.334Z,100417.14
2023-01-29T14:39:58.111Z,100412.27
2023-01-29T14:42:33.465Z,100409.70
2023-01-29T14:45:28.128Z,100409.59
2023-01-29T14:48:04.244Z,100398.39
2023-01-29T14:50:32.563Z,100396.62
2023-01-29T14:53:03.876Z,100392.55
2023-01-29T14:55:45.530Z,100382.66
2023-01-29T14:58:41.926Z,100377.63
2023-01-29T15:01:30.856Z,100377.45
2023-01-29T15:04:03.141Z,100372.79
2023-01-29T15:06:45.363Z,100368.73
2023-01-29T15:09:40.153Z,100361.66
2023-01-29T15:12:27.653Z,100359.52
2023-01-29T15:15:14.110Z,100352.55
2023-01-29T15:18:13.059Z,100350.96
2023-01-29T15:20:43.654Z,100353.63
2023-01-29T15:23:38.198Z,100350.59
2023-01-29T15:26:16.344Z,100352.08
2023-01-29T15:28:51.875Z,100350.88
2023-01-29T15:31:28.655Z,100348.92
2023-01-29T15:33:57.399Z,100350.64
2023-01-29T15:36:29.206Z,100352.06
2023-01-29T15:39:09.874Z,100348.44
2023-01-29T15:41:38.636Z,100342.62
2023-01-29T15:44:18.914Z,100334.73
2023-01-29T15:47:00.017Z,100333.55
2023-01-29T15:49:35.223Z,100330.29
2023-01-29T15:52:07.994Z,100324.73
2023-01-29T15:54:36.469Z,100318.13
2023-01-29T15:57:06.478Z,100316.77
2023-01-29T15:59:39.270Z,100313.02
2023-01-29T16:02:41.108Z,100314.92
2023-01-29T16:05:17.812Z,100310.65
2023-01-29T16:07:47.105Z,100309.08
2023-01-29T16:10:18.118Z,100303.86
2023-01-29T16:12:51.564Z,100305.92
2023-01-29T16:15:40.510Z,100306.61
2023-01-29T16:18:35.315Z,100304.86
2023-01-29T16:21:15.951Z,100309.56
2023-01-29T16:23:48.872Z,100305.79
2023-01-29T16:26:25.279Z,100312.73
2023-01-29T16:28:55.297Z,100313.64
2023-01-29T16:31:29.443Z,100304.63
2023-01-29T16:33:59.927Z,100304.59
2023-01-29T16:36:28.648Z,100298.36
2023-01-29T16:39:13.653Z,100302.50
2023-01-29T16:41:42.069Z,100296.48
2023-01-29T16:44:16.365Z,100298.59
2023-01-29T16:46:51.243Z,100289.98
2023-01-29T16:49:28.821Z,100286.73
2023-01-29T16:52:19.213Z,100287.20
2023-01-29T16:54:47.558Z,100285.20
2023-01-29T16:57:23.660Z,100286.04
2023-01-29T16:59:58.121Z,100285.02
2023-01-29T17:02:33.557Z,100279.15
2023-01-29T17:05:16.888Z,100281.94
2023-01-29T17:07:46.558Z,100283.46
2023-01-29T17:10:22.245Z,100284.97
2023-01-29T17:12:57.884Z,100285.05
2023-01-29T17:15:33.465Z,100280.90
2023-01-29T17:18:02.398Z,100266.43
2023-01-29T17:20:31.520Z,100255.23
2023-01-29T17:22:59.736Z,100252.14
2023-01-29T17:25:29.313Z,100247.95
2023-01-29T17:28:01.661Z,100247.16
2023-01-29T17:30:34.939Z,100247.27
2023-01-29T17:33:15.233Z,100243.12
2023-01-29T17:35:46.099Z,100238.98
2023-01-29T17:38:26.106Z,100237.33
2023-01-29T17:41:00.265Z,100231.14
2023-01-29T17:43:28.779Z,100224.52
2023-01-29T17:45:57.204Z,100221.35
2023-01-29T17:48:27.610Z,100219.95
2023-01-29T17:50:59.054Z,100217.56
2023-01-29T17:53:43.214Z,100212.20
2023-01-29T17:56:17.875Z,100205.50
2023-01-29T17:58:46.140Z,100202.72
2023-01-29T18:01:14.435Z,100202.50
2023-01-29T18:03:42.801Z,100198.32
2023-01-29T18:06:19.641Z,100195.54
2023-01-29T18:08:47.876Z,100194.87
2023-01-29T18:11:16.181Z,100187.04
2023-01-29T18:13:44.390Z,100183.68
2023-01-29T18:16:12.772Z,100181.36
2023-01-29T18:18:41.128Z,100176.17
2023-01-29T18:21:09.399Z,100171.33
2023-01-29T18:23:37.607Z,100167.71
2023-01-29T18:26:07.701Z,100165.48
2023-01-29T18:28:35.830Z,100165.10
2023-01-29T18:31:05.703Z,100160.88
2023-01-29T18:33:36.242Z,100158.22
2023-01-29T18:36:06.901Z,100149.70
2023-01-29T18:38:35.264Z,100146.44
2023-01-29T18:41:05.920Z,100136.60
2023-01-29T18:43:34.196Z,100132.31
2023-01-29T18:46:02.917Z,100128.65
2023-01-29T18:48:31.286Z,100122.90
2023-01-29T18:50:59.806Z,100121.33
2023-01-29T18:53:28.203Z,100118.22
2023-01-29T18:56:04.372Z,100114.27
2023-01-29T18:58:36.728Z,100105.19
2023-01-29T19:01:09.841Z,100105.17
2023-01-29T19:03:40.772Z,100099.10
2023-01-29T19:06:11.499Z,100098.88
2023-01-29T19:08:41.216Z,100101.84
2023-01-29T19:11:09.938Z,100096.85
2023-01-29T19:13:38.663Z,100099.15
2023-01-29T19:16:09.390Z,100092.11
2023-01-29T19:18:38.359Z,100090.55
2023-01-29T19:21:12.815Z,100089.08
2023-01-29T19:23:42.578Z,100087.99
2023-01-29T19:26:11.399Z,100078.84
2023-01-29T19:28:39.934Z,100072.56
2023-01-29T19:31:09.705Z,100067.76
2023-01-29T19:33:39.160Z,100063.07
2023-01-29T19:36:07.799Z,100061.80
2023-01-29T19:38:38.818Z,100055.68
2023-01-29T19:41:07.204Z,100048.91
2023-01-29T19:43:35.607Z,100045.65
2023-01-29T19:46:03.906Z,100039.77
2023-01-29T19:48:32.209Z,100038.92
2023-01-29T19:51:08.690Z,100039.08
2023-01-29T19:53:38.789Z,100029.02
2023-01-29T19:56:09.867Z,100023.66
2023-01-29T19:58:38.456Z,100017.47
2023-01-29T20:01:14.497Z,100006.84
2023-01-29T20:03:46.281Z,100007.85
2023-01-29T20:06:17.406Z,100004.25
2023-01-29T20:08:46.921Z,100001.92
2023-01-29T20:11:18.581Z,99998.58
2023-01-29T20:13:49.912Z,100000.26
2023-01-29T20:16:20.010Z,99997.14
2023-01-29T20:18:48.305Z,99987.42
2023-01-29T20:21:20.785Z,99975.61
2023-01-29T20:23:50.616Z,99968.81
2023-01-29T20:26:20.214Z,99966.02
2023-01-29T20:28:49.069Z,99962.67
2023-01-29T20:31:17.895Z,99963.88
2023-01-29T20:33:46.255Z,99951.83
2023-01-29T20:36:15.198Z,99951.13
2023-01-29T20:38:43.594Z,99942.67
2023-01-29T20:41:17.889Z,99937.41
2023-01-29T20:43:47.484Z,99933.88
2023-01-29T20:46:15.883Z,99931.41
2023-01-29T20:48:44.289Z,99926.23
2023-01-29T20:51:15.876Z,99917.60
2023-01-29T20:53:46.564Z,99905.17
2023-01-29T20:56:17.264Z,99901.52
2023-01-29T20:58:47.017Z,99895.77
2023-01-29T21:01:18.805Z,99886.05
2023-01-29T21:03:48.411Z,99888.17
2023-01-29T21:06:16.648Z,99884.27
2023-01-29T21:08:44.971Z,99876.51
2023-01-29T21:11:13.272Z,99874.05
2023-01-29T21:13:42.859Z,99868.65
2023-01-29T21:16:11.565Z,99861.48
2023-01-29T21:18:39.898Z,99853.70
2023-01-29T21:21:08.147Z,99840.76
2023-01-29T21:23:36.462Z,99837.64
2023-01-29T21:26:06.320Z,99842.30
2023-01-29T21:28:34.962Z,99833.79
2023-01-29T21:31:12.284Z,99829.05
2023-01-29T21:33:40.810Z,99827.11
2023-01-29T21:36:10.316Z,99826.27
2023-01-29T21:38:39.713Z,99825.98
2023-01-29T21:41:09.910Z,99816.67
2023-01-29T21:43:39.223Z,99814.08
2023-01-29T21:46:15.773Z,99805.23
2023-01-29T21:48:44.203Z,99804.35
2023-01-29T21:51:12.466Z,99799.02
2023-01-29T21:53:40.813Z,99791.64
2023-01-29T21:56:09.258Z,99790.10
2023-01-29T21:58:37.483Z,99782.87
2023-01-29T22:01:18.570Z,99779.91
2023-01-29T22:03:57.286Z,99769.70
2023-01-29T22:06:26.902Z,99769.66
2023-01-29T22:08:55.085Z,99763.63
2023-01-29T22:11:23.373Z,99756.22
2023-01-29T22:13:51.687Z,99749.21
2023-01-29T22:16:20.043Z,99739.56
2023-01-29T22:18:49.538Z,99731.75
2023-01-29T22:21:17.955Z,99725.27
2023-01-29T22:23:48.643Z,99722.29
2023-01-29T22:26:17.403Z,99711.59
2023-01-29T22:28:46.209Z,99701.42
2023-01-29T22:31:14.997Z,99697.98
2023-01-29T22:33:46.073Z,99695.38
2023-01-29T22:36:14.385Z,99693.08
2023-01-29T22:38:43.308Z,99692.17
2023-01-29T22:41:13.899Z,99692.11
2023-01-29T22:43:44.096Z,99693.82
2023-01-29T22:46:12.892Z,99687.09
2023-01-29T22:48:41.298Z,99682.40
2023-01-29T22:51:10.538Z,99669.08
2023-01-29T22:53:40.891Z,99668.17
2023-01-29T22:56:11.091Z,99662.26
2023-01-29T22:58:39.571Z,99660.73
2023-01-29T23:01:09.021Z,99652.81
2023-01-29T23:03:37.383Z,99645.56
2023-01-29T23:06:05.669Z,99632.58
2023-01-29T23:08:34.313Z,99623.89
2023-01-29T23:11:14.723Z,99618.33
2023-01-29T23:13:45.266Z,99611.78
2023-01-29T23:16:14.951Z,99606.63
2023-01-29T23:18:44.961Z,99606.98
2023-01-29T23:21:13.205Z,99601.95
2023-01-29T23:23:43.611Z,99603.98
2023-01-29T23:26:32.890Z,99596.85
2023-01-29T23:29:01.309Z,99593.41
2023-01-29T23:31:30.420Z,99584.80
2023-01-29T23:33:58.735Z,99584.46
2023-01-29T23:36:27.828Z,99577.94
2023-01-29T23:38:56.073Z,99569.48
2023-01-29T23:41:24.474Z,99556.70
2023-01-29T23:43:53.373Z,99543.55
2023-01-29T23:46:21.733Z,99544.91
2023-01-29T23:48:50.011Z,99534.08
2023-01-29T23:51:18.479Z,99519.10
2023-01-29T23:53:46.690Z,99508.77
2023-01-29T23:56:14.945Z,99508.21
2023-01-29T23:58:43.354Z,99505.42
